sensor_id;sensor_type;location;lat;lon;timestamp;P1;durP1;ratioP1;P2;durP2;ratioP2
18425;SDS011;9340;48.756;9.226;2023-12-14T00:01:40;3.63;;;3.23;;
18425;SDS011;9340;48.756;9.226;2023-12-14T00:04:08;3.87;;;3.00;;
18425;SDS011;9340;48.756;9.226;2023-12-14T00:06:34;3.57;;;3.27;;
18425;SDS011;9340;48.756;9.226;2023-12-14T00:09:01;3.63;;;3.30;;
18425;SDS011;9340;48.756;9.226;2023-12-14T00:11:28;4.03;;;3.63;;
18425;SDS011;9340;48.756;9.226;2023-12-14T00:13:55;4.40;;;3.50;;
18425;SDS011;9340;48.756;9.226;2023-12-14T00:16:22;4.90;;;4.50;;
18425;SDS011;9340;48.756;9.226;2023-12-14T00:18:48;4.57;;;4.17;;
18425;SDS011;9340;48.756;9.226;2023-12-14T00:21:16;7.10;;;6.40;;
18425;SDS011;9340;48.756;9.226;2023-12-14T00:23:43;12.30;;;9.03;;
18425;SDS011;9340;48.756;9.226;2023-12-14T00:26:10;7.67;;;5.73;;
18425;SDS011;9340;48.756;9.226;2023-12-14T00:28:37;5.43;;;4.93;;
18425;SDS011;9340;48.756;9.226;2023-12-14T00:31:04;5.70;;;5.17;;
18425;SDS011;9340;48.756;9.226;2023-12-14T00:33:31;4.57;;;4.17;;
18425;SDS011;9340;48.756;9.226;2023-12-14T00:35:57;6.00;;;5.40;;
18425;SDS011;9340;48.756;9.226;2023-12-14T00:38:25;5.10;;;4.60;;
18425;SDS011;9340;48.756;9.226;2023-12-14T00:40:52;5.23;;;4.77;;
18425;SDS011;9340;48.756;9.226;2023-12-14T00:43:19;8.27;;;7.50;;
18425;SDS011;9340;48.756;9.226;2023-12-14T00:45:45;4.70;;;4.30;;
18425;SDS011;9340;48.756;9.226;2023-12-14T00:48:12;5.40;;;5.00;;
18425;SDS011;9340;48.756;9.226;2023-12-14T00:50:39;9.30;;;5.93;;
18425;SDS011;9340;48.756;9.226;2023-12-14T00:53:05;6.60;;;5.57;;
18425;SDS011;9340;48.756;9.226;2023-12-14T00:55:33;6.33;;;4.70;;
18425;SDS011;9340;48.756;9.226;2023-12-14T00:58:00;7.60;;;6.80;;
18425;SDS011;9340;48.756;9.226;2023-12-14T01:00:27;6.93;;;6.23;;
18425;SDS011;9340;48.756;9.226;2023-12-14T01:02:55;6.50;;;6.00;;
18425;SDS011;9340;48.756;9.226;2023-12-14T01:05:22;7.07;;;6.47;;
18425;SDS011;9340;48.756;9.226;2023-12-14T01:07:49;6.20;;;5.60;;
18425;SDS011;9340;48.756;9.226;2023-12-14T01:10:15;5.40;;;5.00;;
18425;SDS011;9340;48.756;9.226;2023-12-14T01:12:43;5.40;;;4.90;;
18425;SDS011;9340;48.756;9.226;2023-12-14T01:15:10;6.00;;;5.50;;
18425;SDS011;9340;48.756;9.226;2023-12-14T01:17:37;6.10;;;5.60;;
18425;SDS011;9340;48.756;9.226;2023-12-14T01:20:04;6.70;;;6.10;;
18425;SDS011;9340;48.756;9.226;2023-12-14T01:22:32;7.97;;;7.17;;
18425;SDS011;9340;48.756;9.226;2023-12-14T01:24:59;8.40;;;6.70;;
18425;SDS011;9340;48.756;9.226;2023-12-14T01:27:26;8.63;;;7.50;;
18425;SDS011;9340;48.756;9.226;2023-12-14T01:29:54;5.83;;;5.33;;
18425;SDS011;9340;48.756;9.226;2023-12-14T01:32:20;6.97;;;6.03;;
18425;SDS011;9340;48.756;9.226;2023-12-14T01:34:47;6.30;;;5.70;;
18425;SDS011;9340;48.756;9.226;2023-12-14T01:37:14;6.83;;;5.70;;
18425;SDS011;9340;48.756;9.226;2023-12-14T01:39:40;5.27;;;4.70;;
18425;SDS011;9340;48.756;9.226;2023-12-14T01:42:07;6.10;;;5.47;;
18425;SDS011;9340;48.756;9.226;2023-12-14T01:44:34;5.93;;;5.33;;
18425;SDS011;9340;48.756;9.226;2023-12-14T01:47:02;5.97;;;5.00;;
18425;SDS011;9340;48.756;9.226;2023-12-14T01:49:28;5.53;;;5.03;;
18425;SDS011;9340;48.756;9.226;2023-12-14T01:51:55;5.80;;;5.30;;
18425;SDS011;9340;48.756;9.226;2023-12-14T01:54:22;6.33;;;5.00;;
18425;SDS011;9340;48.756;9.226;2023-12-14T01:56:48;5.20;;;4.77;;
18425;SDS011;9340;48.756;9.226;2023-12-14T01:59:15;5.40;;;4.57;;
18425;SDS011;9340;48.756;9.226;2023-12-14T02:01:42;6.07;;;5.17;;
18425;SDS011;9340;48.756;9.226;2023-12-14T02:04:11;5.87;;;5.30;;
18425;SDS011;9340;48.756;9.226;2023-12-14T02:06:39;6.67;;;5.80;;
18425;SDS011;9340;48.756;9.226;2023-12-14T02:09:07;5.27;;;4.77;;
18425;SDS011;9340;48.756;9.226;2023-12-14T02:11:34;5.13;;;4.63;;
18425;SDS011;9340;48.756;9.226;2023-12-14T02:14:03;7.37;;;6.13;;
18425;SDS011;9340;48.756;9.226;2023-12-14T02:16:30;8.43;;;7.33;;
18425;SDS011;9340;48.756;9.226;2023-12-14T02:18:57;5.83;;;5.33;;
18425;SDS011;9340;48.756;9.226;2023-12-14T02:21:24;5.57;;;5.07;;
18425;SDS011;9340;48.756;9.226;2023-12-14T02:23:52;5.40;;;4.93;;
18425;SDS011;9340;48.756;9.226;2023-12-14T02:26:19;5.30;;;4.80;;
18425;SDS011;9340;48.756;9.226;2023-12-14T02:28:46;5.97;;;5.33;;
18425;SDS011;9340;48.756;9.226;2023-12-14T02:31:12;5.63;;;5.13;;
18425;SDS011;9340;48.756;9.226;2023-12-14T02:33:39;5.13;;;4.73;;
18425;SDS011;9340;48.756;9.226;2023-12-14T02:36:06;5.30;;;4.80;;
18425;SDS011;9340;48.756;9.226;2023-12-14T02:38:33;4.00;;;3.67;;
18425;SDS011;9340;48.756;9.226;2023-12-14T02:41:01;5.83;;;5.27;;
18425;SDS011;9340;48.756;9.226;2023-12-14T02:43:27;5.07;;;4.60;;
18425;SDS011;9340;48.756;9.226;2023-12-14T02:45:54;5.40;;;4.73;;
18425;SDS011;9340;48.756;9.226;2023-12-14T02:48:26;5.33;;;4.83;;
18425;SDS011;9340;48.756;9.226;2023-12-14T02:50:53;4.50;;;4.10;;
18425;SDS011;9340;48.756;9.226;2023-12-14T02:53:20;4.70;;;3.97;;
18425;SDS011;9340;48.756;9.226;2023-12-14T02:55:46;5.93;;;4.57;;
18425;SDS011;9340;48.756;9.226;2023-12-14T02:58:14;4.80;;;4.30;;
18425;SDS011;9340;48.756;9.226;2023-12-14T03:00:41;5.47;;;4.97;;
18425;SDS011;9340;48.756;9.226;2023-12-14T03:03:08;5.13;;;4.50;;
18425;SDS011;9340;48.756;9.226;2023-12-14T03:05:34;4.27;;;3.73;;
18425;SDS011;9340;48.756;9.226;2023-12-14T03:08:01;4.83;;;4.43;;
18425;SDS011;9340;48.756;9.226;2023-12-14T03:10:27;4.20;;;3.80;;
18425;SDS011;9340;48.756;9.226;2023-12-14T03:12:54;6.20;;;3.53;;
18425;SDS011;9340;48.756;9.226;2023-12-14T03:15:22;5.00;;;3.50;;
18425;SDS011;9340;48.756;9.226;2023-12-14T03:17:49;4.47;;;4.07;;
18425;SDS011;9340;48.756;9.226;2023-12-14T03:20:15;5.03;;;4.53;;
18425;SDS011;9340;48.756;9.226;2023-12-14T03:22:42;6.10;;;5.13;;
18425;SDS011;9340;48.756;9.226;2023-12-14T03:25:09;4.63;;;3.50;;
18425;SDS011;9340;48.756;9.226;2023-12-14T03:27:35;4.23;;;3.83;;
18425;SDS011;9340;48.756;9.226;2023-12-14T03:30:02;4.13;;;3.60;;
18425;SDS011;9340;48.756;9.226;2023-12-14T03:32:34;4.70;;;4.30;;
18425;SDS011;9340;48.756;9.226;2023-12-14T03:35:00;4.70;;;4.30;;
18425;SDS011;9340;48.756;9.226;2023-12-14T03:37:27;5.27;;;4.07;;
18425;SDS011;9340;48.756;9.226;2023-12-14T03:39:54;4.40;;;4.00;;
18425;SDS011;9340;48.756;9.226;2023-12-14T03:42:21;5.23;;;4.70;;
18425;SDS011;9340;48.756;9.226;2023-12-14T03:44:47;4.50;;;4.10;;
18425;SDS011;9340;48.756;9.226;2023-12-14T03:47:14;4.00;;;3.60;;
18425;SDS011;9340;48.756;9.226;2023-12-14T03:49:42;3.73;;;3.43;;
18425;SDS011;9340;48.756;9.226;2023-12-14T03:52:09;4.90;;;4.50;;
18425;SDS011;9340;48.756;9.226;2023-12-14T03:54:35;6.17;;;5.37;;
18425;SDS011;9340;48.756;9.226;2023-12-14T03:57:02;5.40;;;4.90;;
18425;SDS011;9340;48.756;9.226;2023-12-14T03:59:29;6.13;;;4.50;;
18425;SDS011;9340;48.756;9.226;2023-12-14T04:01:57;5.10;;;4.60;;
18425;SDS011;9340;48.756;9.226;2023-12-14T04:04:24;6.07;;;4.60;;
18425;SDS011;9340;48.756;9.226;2023-12-14T04:06:52;6.60;;;4.97;;
18425;SDS011;9340;48.756;9.226;2023-12-14T04:09:18;8.93;;;7.03;;
18425;SDS011;9340;48.756;9.226;2023-12-14T04:11:45;7.53;;;6.83;;
18425;SDS011;9340;48.756;9.226;2023-12-14T04:14:12;8.57;;;7.13;;
18425;SDS011;9340;48.756;9.226;2023-12-14T04:16:38;9.27;;;6.73;;
18425;SDS011;9340;48.756;9.226;2023-12-14T04:19:05;7.63;;;6.83;;
18425;SDS011;9340;48.756;9.226;2023-12-14T04:21:35;7.53;;;6.73;;
18425;SDS011;9340;48.756;9.226;2023-12-14T04:24:03;6.53;;;5.80;;
18425;SDS011;9340;48.756;9.226;2023-12-14T04:26:30;7.63;;;6.20;;
18425;SDS011;9340;48.756;9.226;2023-12-14T04:28:57;9.03;;;5.87;;
18425;SDS011;9340;48.756;9.226;2023-12-14T04:31:23;5.20;;;4.60;;
18425;SDS011;9340;48.756;9.226;2023-12-14T04:33:50;4.20;;;3.80;;
18425;SDS011;9340;48.756;9.226;2023-12-14T04:36:17;7.47;;;5.97;;
18425;SDS011;9340;48.756;9.226;2023-12-14T04:38:44;6.50;;;4.57;;
18425;SDS011;9340;48.756;9.226;2023-12-14T04:41:13;3.93;;;3.63;;
18425;SDS011;9340;48.756;9.226;2023-12-14T04:43:39;4.17;;;3.63;;
18425;SDS011;9340;48.756;9.226;2023-12-14T04:46:06;4.30;;;3.37;;
18425;SDS011;9340;48.756;9.226;2023-12-14T04:48:33;5.00;;;3.63;;
18425;SDS011;9340;48.756;9.226;2023-12-14T04:50:59;3.27;;;2.97;;
18425;SDS011;9340;48.756;9.226;2023-12-14T04:53:26;4.40;;;3.53;;
18425;SDS011;9340;48.756;9.226;2023-12-14T04:55:52;5.47;;;4.97;;
18425;SDS011;9340;48.756;9.226;2023-12-14T04:58:20;3.83;;;3.53;;
18425;SDS011;9340;48.756;9.226;2023-12-14T05:00:47;4.23;;;3.87;;
18425;SDS011;9340;48.756;9.226;2023-12-14T05:03:14;3.90;;;3.47;;
18425;SDS011;9340;48.756;9.226;2023-12-14T05:05:40;3.13;;;2.83;;
18425;SDS011;9340;48.756;9.226;2023-12-14T05:08:07;2.23;;;2.03;;
18425;SDS011;9340;48.756;9.226;2023-12-14T05:10:34;4.30;;;3.40;;
18425;SDS011;9340;48.756;9.226;2023-12-14T05:13:00;3.10;;;2.90;;
18425;SDS011;9340;48.756;9.226;2023-12-14T05:15:28;3.30;;;3.00;;
18425;SDS011;9340;48.756;9.226;2023-12-14T05:17:55;3.67;;;3.33;;
18425;SDS011;9340;48.756;9.226;2023-12-14T05:20:22;4.00;;;3.40;;
18425;SDS011;9340;48.756;9.226;2023-12-14T05:22:48;3.40;;;3.10;;
18425;SDS011;9340;48.756;9.226;2023-12-14T05:25:15;3.83;;;2.63;;
18425;SDS011;9340;48.756;9.226;2023-12-14T05:27:42;7.47;;;6.77;;
18425;SDS011;9340;48.756;9.226;2023-12-14T05:30:09;7.60;;;6.80;;
18425;SDS011;9340;48.756;9.226;2023-12-14T05:32:37;8.53;;;7.43;;
18425;SDS011;9340;48.756;9.226;2023-12-14T05:35:04;7.03;;;6.33;;
18425;SDS011;9340;48.756;9.226;2023-12-14T05:37:32;7.83;;;7.03;;
18425;SDS011;9340;48.756;9.226;2023-12-14T05:39:58;6.97;;;5.00;;
18425;SDS011;9340;48.756;9.226;2023-12-14T05:42:25;8.67;;;5.03;;
18425;SDS011;9340;48.756;9.226;2023-12-14T05:44:51;4.03;;;3.73;;
18425;SDS011;9340;48.756;9.226;2023-12-14T05:47:18;3.67;;;3.37;;
18425;SDS011;9340;48.756;9.226;2023-12-14T05:49:46;3.60;;;3.30;;
18425;SDS011;9340;48.756;9.226;2023-12-14T05:52:13;3.90;;;3.60;;
18425;SDS011;9340;48.756;9.226;2023-12-14T05:54:40;3.97;;;3.67;;
18425;SDS011;9340;48.756;9.226;2023-12-14T05:57:06;5.47;;;4.30;;
18425;SDS011;9340;48.756;9.226;2023-12-14T05:59:33;3.10;;;2.80;;
18425;SDS011;9340;48.756;9.226;2023-12-14T06:02:00;3.60;;;3.30;;
18425;SDS011;9340;48.756;9.226;2023-12-14T06:04:27;3.83;;;3.50;;
18425;SDS011;9340;48.756;9.226;2023-12-14T06:06:55;4.20;;;3.50;;
18425;SDS011;9340;48.756;9.226;2023-12-14T06:09:22;3.93;;;2.93;;
18425;SDS011;9340;48.756;9.226;2023-12-14T06:11:54;3.10;;;2.90;;
18425;SDS011;9340;48.756;9.226;2023-12-14T06:14:21;3.10;;;2.90;;
18425;SDS011;9340;48.756;9.226;2023-12-14T06:16:47;4.23;;;3.10;;
18425;SDS011;9340;48.756;9.226;2023-12-14T06:19:14;3.63;;;3.33;;
18425;SDS011;9340;48.756;9.226;2023-12-14T06:21:40;4.17;;;3.77;;
18425;SDS011;9340;48.756;9.226;2023-12-14T06:24:08;7.33;;;3.93;;
18425;SDS011;9340;48.756;9.226;2023-12-14T06:26:40;3.70;;;3.40;;
18425;SDS011;9340;48.756;9.226;2023-12-14T06:29:06;4.30;;;3.40;;
18425;SDS011;9340;48.756;9.226;2023-12-14T06:31:33;4.43;;;4.13;;
18425;SDS011;9340;48.756;9.226;2023-12-14T06:34:00;3.80;;;3.50;;
18425;SDS011;9340;48.756;9.226;2023-12-14T06:36:29;5.13;;;3.90;;
18425;SDS011;9340;48.756;9.226;2023-12-14T06:38:55;4.37;;;3.97;;
18425;SDS011;9340;48.756;9.226;2023-12-14T06:41:24;4.70;;;4.00;;
18425;SDS011;9340;48.756;9.226;2023-12-14T06:43:51;4.50;;;4.10;;
18425;SDS011;9340;48.756;9.226;2023-12-14T06:46:18;4.93;;;4.33;;
18425;SDS011;9340;48.756;9.226;2023-12-14T06:48:45;4.87;;;4.37;;
18425;SDS011;9340;48.756;9.226;2023-12-14T06:51:12;7.40;;;5.20;;
18425;SDS011;9340;48.756;9.226;2023-12-14T06:53:39;5.87;;;5.40;;
18425;SDS011;9340;48.756;9.226;2023-12-14T06:56:08;7.70;;;7.03;;
18425;SDS011;9340;48.756;9.226;2023-12-14T06:58:38;10.57;;;9.23;;
18425;SDS011;9340;48.756;9.226;2023-12-14T07:01:05;10.40;;;9.30;;
18425;SDS011;9340;48.756;9.226;2023-12-14T07:03:32;13.97;;;12.63;;
18425;SDS011;9340;48.756;9.226;2023-12-14T07:05:59;14.40;;;12.83;;
18425;SDS011;9340;48.756;9.226;2023-12-14T07:08:25;16.37;;;14.67;;
18425;SDS011;9340;48.756;9.226;2023-12-14T07:10:52;12.93;;;11.37;;
18425;SDS011;9340;48.756;9.226;2023-12-14T07:13:19;9.83;;;8.83;;
18425;SDS011;9340;48.756;9.226;2023-12-14T07:15:47;9.80;;;8.90;;
18425;SDS011;9340;48.756;9.226;2023-12-14T07:18:14;10.70;;;9.70;;
18425;SDS011;9340;48.756;9.226;2023-12-14T07:20:40;9.93;;;8.70;;
18425;SDS011;9340;48.756;9.226;2023-12-14T07:23:07;9.17;;;8.27;;
18425;SDS011;9340;48.756;9.226;2023-12-14T07:25:34;8.03;;;7.33;;
18425;SDS011;9340;48.756;9.226;2023-12-14T07:28:00;10.07;;;9.17;;
18425;SDS011;9340;48.756;9.226;2023-12-14T07:30:27;11.67;;;9.37;;
18425;SDS011;9340;48.756;9.226;2023-12-14T07:32:55;11.33;;;8.93;;
18425;SDS011;9340;48.756;9.226;2023-12-14T07:35:22;13.37;;;11.63;;
18425;SDS011;9340;48.756;9.226;2023-12-14T07:37:49;19.40;;;15.20;;
18425;SDS011;9340;48.756;9.226;2023-12-14T07:40:16;13.20;;;11.20;;
18425;SDS011;9340;48.756;9.226;2023-12-14T07:42:42;12.40;;;10.77;;
18425;SDS011;9340;48.756;9.226;2023-12-14T07:45:09;10.10;;;9.00;;
18425;SDS011;9340;48.756;9.226;2023-12-14T07:47:36;15.40;;;11.53;;
18425;SDS011;9340;48.756;9.226;2023-12-14T07:50:04;18.00;;;13.10;;
18425;SDS011;9340;48.756;9.226;2023-12-14T07:52:32;15.90;;;13.63;;
18425;SDS011;9340;48.756;9.226;2023-12-14T07:54:59;16.53;;;13.67;;
18425;SDS011;9340;48.756;9.226;2023-12-14T07:57:26;15.00;;;12.00;;
18425;SDS011;9340;48.756;9.226;2023-12-14T07:59:53;14.63;;;12.03;;
18425;SDS011;9340;48.756;9.226;2023-12-14T08:02:19;14.87;;;11.93;;
18425;SDS011;9340;48.756;9.226;2023-12-14T08:04:46;13.30;;;10.50;;
18425;SDS011;9340;48.756;9.226;2023-12-14T08:07:14;10.50;;;9.50;;
18425;SDS011;9340;48.756;9.226;2023-12-14T08:09:41;10.97;;;9.87;;
18425;SDS011;9340;48.756;9.226;2023-12-14T08:12:07;10.27;;;9.17;;
18425;SDS011;9340;48.756;9.226;2023-12-14T08:14:34;11.13;;;9.53;;
18425;SDS011;9340;48.756;9.226;2023-12-14T08:17:02;9.30;;;8.40;;
18425;SDS011;9340;48.756;9.226;2023-12-14T08:19:29;10.80;;;9.47;;
18425;SDS011;9340;48.756;9.226;2023-12-14T08:21:57;10.07;;;9.00;;
18425;SDS011;9340;48.756;9.226;2023-12-14T08:24:25;10.27;;;9.03;;
18425;SDS011;9340;48.756;9.226;2023-12-14T08:26:51;10.00;;;9.00;;
18425;SDS011;9340;48.756;9.226;2023-12-14T08:29:18;10.87;;;9.73;;
18425;SDS011;9340;48.756;9.226;2023-12-14T08:31:45;12.73;;;11.53;;
18425;SDS011;9340;48.756;9.226;2023-12-14T08:34:11;14.07;;;12.60;;
18425;SDS011;9340;48.756;9.226;2023-12-14T08:36:38;16.80;;;15.10;;
18425;SDS011;9340;48.756;9.226;2023-12-14T08:39:05;20.17;;;17.93;;
18425;SDS011;9340;48.756;9.226;2023-12-14T08:41:33;20.40;;;17.27;;
18425;SDS011;9340;48.756;9.226;2023-12-14T08:43:59;17.03;;;15.23;;
18425;SDS011;9340;48.756;9.226;2023-12-14T08:46:26;16.63;;;14.83;;
18425;SDS011;9340;48.756;9.226;2023-12-14T08:48:53;15.97;;;13.40;;
18425;SDS011;9340;48.756;9.226;2023-12-14T08:51:19;15.67;;;13.80;;
18425;SDS011;9340;48.756;9.226;2023-12-14T08:53:46;44.70;;;39.87;;
18425;SDS011;9340;48.756;9.226;2023-12-14T08:56:13;44.73;;;40.17;;
18425;SDS011;9340;48.756;9.226;2023-12-14T08:58:41;19.63;;;17.57;;
18425;SDS011;9340;48.756;9.226;2023-12-14T09:01:07;22.67;;;17.97;;
18425;SDS011;9340;48.756;9.226;2023-12-14T09:03:34;19.90;;;16.77;;
18425;SDS011;9340;48.756;9.226;2023-12-14T09:06:01;15.93;;;13.80;;
18425;SDS011;9340;48.756;9.226;2023-12-14T09:08:30;21.73;;;16.63;;
18425;SDS011;9340;48.756;9.226;2023-12-14T09:10:56;21.17;;;15.97;;
18425;SDS011;9340;48.756;9.226;2023-12-14T09:13:23;15.83;;;14.13;;
18425;SDS011;9340;48.756;9.226;2023-12-14T09:15:51;16.07;;;13.87;;
18425;SDS011;9340;48.756;9.226;2023-12-14T09:18:18;16.00;;;14.27;;
18425;SDS011;9340;48.756;9.226;2023-12-14T09:20:47;14.10;;;12.60;;
18425;SDS011;9340;48.756;9.226;2023-12-14T09:23:14;8.10;;;7.40;;
18425;SDS011;9340;48.756;9.226;2023-12-14T09:25:41;7.57;;;6.60;;
18425;SDS011;9340;48.756;9.226;2023-12-14T09:28:08;7.17;;;6.50;;
18425;SDS011;9340;48.756;9.226;2023-12-14T09:30:34;7.20;;;6.50;;
18425;SDS011;9340;48.756;9.226;2023-12-14T09:33:02;7.37;;;6.77;;
18425;SDS011;9340;48.756;9.226;2023-12-14T09:35:29;6.90;;;6.37;;
18425;SDS011;9340;48.756;9.226;2023-12-14T09:37:56;6.87;;;6.17;;
18425;SDS011;9340;48.756;9.226;2023-12-14T09:40:22;6.63;;;6.10;;
18425;SDS011;9340;48.756;9.226;2023-12-14T09:42:49;7.50;;;6.23;;
18425;SDS011;9340;48.756;9.226;2023-12-14T09:45:16;6.63;;;6.03;;
18425;SDS011;9340;48.756;9.226;2023-12-14T09:47:43;6.97;;;6.37;;
18425;SDS011;9340;48.756;9.226;2023-12-14T09:50:13;6.40;;;5.90;;
18425;SDS011;9340;48.756;9.226;2023-12-14T09:52:41;6.43;;;5.83;;
18425;SDS011;9340;48.756;9.226;2023-12-14T09:55:10;6.43;;;5.93;;
18425;SDS011;9340;48.756;9.226;2023-12-14T09:57:36;7.23;;;6.63;;
18425;SDS011;9340;48.756;9.226;2023-12-14T10:00:03;7.03;;;6.43;;
18425;SDS011;9340;48.756;9.226;2023-12-14T10:02:35;8.83;;;6.10;;
18425;SDS011;9340;48.756;9.226;2023-12-14T10:05:02;7.10;;;6.50;;
18425;SDS011;9340;48.756;9.226;2023-12-14T10:07:35;7.17;;;6.50;;
18425;SDS011;9340;48.756;9.226;2023-12-14T10:10:10;6.47;;;5.97;;
18425;SDS011;9340;48.756;9.226;2023-12-14T10:12:50;7.00;;;6.40;;
18425;SDS011;9340;48.756;9.226;2023-12-14T10:15:17;7.33;;;6.53;;
18425;SDS011;9340;48.756;9.226;2023-12-14T10:17:45;7.23;;;6.53;;
18425;SDS011;9340;48.756;9.226;2023-12-14T10:20:19;5.93;;;5.53;;
18425;SDS011;9340;48.756;9.226;2023-12-14T10:22:49;7.37;;;6.77;;
18425;SDS011;9340;48.756;9.226;2023-12-14T10:25:17;7.70;;;7.00;;
18425;SDS011;9340;48.756;9.226;2023-12-14T10:27:45;7.73;;;7.03;;
18425;SDS011;9340;48.756;9.226;2023-12-14T10:30:13;7.23;;;6.57;;
18425;SDS011;9340;48.756;9.226;2023-12-14T10:32:40;7.07;;;6.43;;
18425;SDS011;9340;48.756;9.226;2023-12-14T10:35:07;6.23;;;5.73;;
18425;SDS011;9340;48.756;9.226;2023-12-14T10:37:34;8.07;;;7.37;;
18425;SDS011;9340;48.756;9.226;2023-12-14T10:40:06;6.13;;;5.53;;
18425;SDS011;9340;48.756;9.226;2023-12-14T10:42:35;6.53;;;5.87;;
18425;SDS011;9340;48.756;9.226;2023-12-14T10:45:03;5.63;;;5.13;;
18425;SDS011;9340;48.756;9.226;2023-12-14T10:47:31;5.30;;;4.80;;
18425;SDS011;9340;48.756;9.226;2023-12-14T10:49:59;5.30;;;4.80;;
18425;SDS011;9340;48.756;9.226;2023-12-14T10:52:26;5.50;;;4.90;;
18425;SDS011;9340;48.756;9.226;2023-12-14T10:54:56;5.30;;;4.70;;
18425;SDS011;9340;48.756;9.226;2023-12-14T10:57:29;5.47;;;4.47;;
18425;SDS011;9340;48.756;9.226;2023-12-14T10:59:57;6.03;;;4.23;;
18425;SDS011;9340;48.756;9.226;2023-12-14T11:02:25;5.20;;;4.77;;
18425;SDS011;9340;48.756;9.226;2023-12-14T11:04:55;6.70;;;4.83;;
18425;SDS011;9340;48.756;9.226;2023-12-14T11:07:42;6.50;;;5.60;;
18425;SDS011;9340;48.756;9.226;2023-12-14T11:10:10;6.00;;;5.50;;
18425;SDS011;9340;48.756;9.226;2023-12-14T11:12:38;5.80;;;5.30;;
18425;SDS011;9340;48.756;9.226;2023-12-14T11:15:17;6.17;;;5.57;;
18425;SDS011;9340;48.756;9.226;2023-12-14T11:17:53;7.73;;;6.00;;
18425;SDS011;9340;48.756;9.226;2023-12-14T11:20:48;6.33;;;5.73;;
18425;SDS011;9340;48.756;9.226;2023-12-14T11:23:16;7.30;;;6.13;;
18425;SDS011;9340;48.756;9.226;2023-12-14T11:25:54;5.77;;;5.27;;
18425;SDS011;9340;48.756;9.226;2023-12-14T11:28:23;7.67;;;5.70;;
18425;SDS011;9340;48.756;9.226;2023-12-14T11:30:50;6.57;;;5.70;;
18425;SDS011;9340;48.756;9.226;2023-12-14T11:33:16;6.97;;;6.30;;
18425;SDS011;9340;48.756;9.226;2023-12-14T11:35:44;6.37;;;5.47;;
18425;SDS011;9340;48.756;9.226;2023-12-14T11:38:11;6.87;;;5.40;;
18425;SDS011;9340;48.756;9.226;2023-12-14T11:40:38;7.20;;;5.37;;
18425;SDS011;9340;48.756;9.226;2023-12-14T11:43:05;7.60;;;5.80;;
18425;SDS011;9340;48.756;9.226;2023-12-14T11:45:33;6.37;;;5.83;;
18425;SDS011;9340;48.756;9.226;2023-12-14T11:47:59;6.30;;;5.50;;
18425;SDS011;9340;48.756;9.226;2023-12-14T11:50:27;6.70;;;6.10;;
18425;SDS011;9340;48.756;9.226;2023-12-14T11:52:56;6.63;;;6.00;;
18425;SDS011;9340;48.756;9.226;2023-12-14T11:55:23;7.17;;;6.40;;
18425;SDS011;9340;48.756;9.226;2023-12-14T11:57:49;6.93;;;6.33;;
18425;SDS011;9340;48.756;9.226;2023-12-14T12:00:16;7.33;;;6.53;;
18425;SDS011;9340;48.756;9.226;2023-12-14T12:02:43;10.77;;;7.10;;
18425;SDS011;9340;48.756;9.226;2023-12-14T12:05:10;7.03;;;6.33;;
18425;SDS011;9340;48.756;9.226;2023-12-14T12:07:38;6.67;;;6.07;;
18425;SDS011;9340;48.756;9.226;2023-12-14T12:10:10;7.00;;;6.30;;
18425;SDS011;9340;48.756;9.226;2023-12-14T12:12:37;6.90;;;6.20;;
18425;SDS011;9340;48.756;9.226;2023-12-14T12:15:04;6.50;;;5.90;;
18425;SDS011;9340;48.756;9.226;2023-12-14T12:17:31;6.23;;;5.70;;
18425;SDS011;9340;48.756;9.226;2023-12-14T12:20:02;5.13;;;4.47;;
18425;SDS011;9340;48.756;9.226;2023-12-14T12:22:30;5.27;;;4.20;;
18425;SDS011;9340;48.756;9.226;2023-12-14T12:24:57;5.13;;;4.37;;
18425;SDS011;9340;48.756;9.226;2023-12-14T12:27:27;5.83;;;3.23;;
18425;SDS011;9340;48.756;9.226;2023-12-14T12:29:53;3.53;;;2.70;;
18425;SDS011;9340;48.756;9.226;2023-12-14T12:32:20;3.00;;;2.53;;
18425;SDS011;9340;48.756;9.226;2023-12-14T12:34:47;4.10;;;2.43;;
18425;SDS011;9340;48.756;9.226;2023-12-14T12:37:13;2.47;;;2.27;;
18425;SDS011;9340;48.756;9.226;2023-12-14T12:39:40;2.83;;;2.40;;
18425;SDS011;9340;48.756;9.226;2023-12-14T12:42:07;4.73;;;2.47;;
18425;SDS011;9340;48.756;9.226;2023-12-14T12:44:35;2.50;;;2.30;;
18425;SDS011;9340;48.756;9.226;2023-12-14T12:47:01;2.80;;;2.07;;
18425;SDS011;9340;48.756;9.226;2023-12-14T12:49:28;2.67;;;2.47;;
18425;SDS011;9340;48.756;9.226;2023-12-14T12:51:56;3.07;;;2.23;;
18425;SDS011;9340;48.756;9.226;2023-12-14T12:54:22;2.97;;;2.43;;
18425;SDS011;9340;48.756;9.226;2023-12-14T12:56:49;2.57;;;2.37;;
18425;SDS011;9340;48.756;9.226;2023-12-14T12:59:15;3.50;;;2.47;;
18425;SDS011;9340;48.756;9.226;2023-12-14T13:01:43;4.20;;;2.30;;
18425;SDS011;9340;48.756;9.226;2023-12-14T13:04:19;5.07;;;2.63;;
18425;SDS011;9340;48.756;9.226;2023-12-14T13:06:47;3.40;;;2.50;;
18425;SDS011;9340;48.756;9.226;2023-12-14T13:09:14;3.63;;;2.70;;
18425;SDS011;9340;48.756;9.226;2023-12-14T13:11:41;2.93;;;2.43;;
18425;SDS011;9340;48.756;9.226;2023-12-14T13:14:08;2.70;;;2.10;;
18425;SDS011;9340;48.756;9.226;2023-12-14T13:16:35;2.43;;;2.10;;
18425;SDS011;9340;48.756;9.226;2023-12-14T13:19:03;1.97;;;1.87;;
18425;SDS011;9340;48.756;9.226;2023-12-14T13:21:31;3.70;;;1.90;;
18425;SDS011;9340;48.756;9.226;2023-12-14T13:23:58;4.07;;;2.07;;
18425;SDS011;9340;48.756;9.226;2023-12-14T13:26:25;3.37;;;2.20;;
18425;SDS011;9340;48.756;9.226;2023-12-14T13:28:52;2.00;;;1.90;;
18425;SDS011;9340;48.756;9.226;2023-12-14T13:31:19;2.97;;;1.90;;
18425;SDS011;9340;48.756;9.226;2023-12-14T13:33:46;2.10;;;1.90;;
18425;SDS011;9340;48.756;9.226;2023-12-14T13:36:14;2.43;;;2.00;;
18425;SDS011;9340;48.756;9.226;2023-12-14T13:38:41;2.90;;;1.70;;
18425;SDS011;9340;48.756;9.226;2023-12-14T13:41:08;1.90;;;1.77;;
18425;SDS011;9340;48.756;9.226;2023-12-14T13:43:35;3.00;;;2.70;;
18425;SDS011;9340;48.756;9.226;2023-12-14T13:46:02;2.30;;;1.80;;
18425;SDS011;9340;48.756;9.226;2023-12-14T13:48:29;2.23;;;1.90;;
18425;SDS011;9340;48.756;9.226;2023-12-14T13:50:56;3.80;;;2.07;;
18425;SDS011;9340;48.756;9.226;2023-12-14T13:53:24;3.97;;;2.50;;
18425;SDS011;9340;48.756;9.226;2023-12-14T13:55:51;2.27;;;2.07;;
18425;SDS011;9340;48.756;9.226;2023-12-14T13:58:17;2.40;;;2.07;;
18425;SDS011;9340;48.756;9.226;2023-12-14T14:00:44;2.90;;;2.60;;
18425;SDS011;9340;48.756;9.226;2023-12-14T14:03:11;2.63;;;2.33;;
18425;SDS011;9340;48.756;9.226;2023-12-14T14:05:38;3.00;;;2.80;;
18425;SDS011;9340;48.756;9.226;2023-12-14T14:08:04;3.27;;;2.73;;
18425;SDS011;9340;48.756;9.226;2023-12-14T14:10:33;2.90;;;2.70;;
18425;SDS011;9340;48.756;9.226;2023-12-14T14:12:59;2.27;;;2.07;;
18425;SDS011;9340;48.756;9.226;2023-12-14T14:15:26;2.20;;;2.00;;
18425;SDS011;9340;48.756;9.226;2023-12-14T14:17:53;2.63;;;2.20;;
18425;SDS011;9340;48.756;9.226;2023-12-14T14:20:20;2.63;;;2.40;;
18425;SDS011;9340;48.756;9.226;2023-12-14T14:22:48;2.80;;;2.60;;
18425;SDS011;9340;48.756;9.226;2023-12-14T14:25:15;3.07;;;2.87;;
18425;SDS011;9340;48.756;9.226;2023-12-14T14:27:43;2.60;;;2.40;;
18425;SDS011;9340;48.756;9.226;2023-12-14T14:30:12;2.73;;;2.53;;
18425;SDS011;9340;48.756;9.226;2023-12-14T14:32:39;3.73;;;3.10;;
18425;SDS011;9340;48.756;9.226;2023-12-14T14:35:06;4.80;;;3.60;;
18425;SDS011;9340;48.756;9.226;2023-12-14T14:37:33;3.80;;;3.50;;
18425;SDS011;9340;48.756;9.226;2023-12-14T14:40:00;4.33;;;3.93;;
18425;SDS011;9340;48.756;9.226;2023-12-14T14:42:27;6.90;;;6.30;;
18425;SDS011;9340;48.756;9.226;2023-12-14T14:44:56;7.07;;;6.23;;
18425;SDS011;9340;48.756;9.226;2023-12-14T14:47:22;7.73;;;6.93;;
18425;SDS011;9340;48.756;9.226;2023-12-14T14:49:49;8.20;;;7.50;;
18425;SDS011;9340;48.756;9.226;2023-12-14T14:52:16;12.37;;;11.17;;
18425;SDS011;9340;48.756;9.226;2023-12-14T14:54:43;8.73;;;7.87;;
18425;SDS011;9340;48.756;9.226;2023-12-14T14:57:09;8.50;;;7.63;;
18425;SDS011;9340;48.756;9.226;2023-12-14T14:59:36;10.00;;;9.00;;